createdAt,value
2022-09-21T00:01:13.437Z,5.47
2022-09-21T00:03:42.675Z,6.90
2022-09-21T00:06:12.518Z,5.03
2022-09-21T00:08:40.672Z,7.30
2022-09-21T00:11:13.875Z,4.43
2022-09-21T00:13:45.780Z,6.57
2022-09-21T00:16:13.902Z,4.83
2022-09-21T00:18:41.949Z,4.90
2022-09-21T00:21:10.779Z,5.00
2022-09-21T00:23:39.348Z,5.23
2022-09-21T00:26:10.471Z,5.03
2022-09-21T00:28:40.150Z,7.20
2022-09-21T00:31:12.181Z,3.90
2022-09-21T00:33:40.911Z,5.67
2022-09-21T00:36:10.908Z,3.70
2022-09-21T00:38:41.016Z,6.60
2022-09-21T00:41:11.866Z,5.50
2022-09-21T00:43:47.021Z,4.13
2022-09-21T00:46:19.365Z,6.43
2022-09-21T00:48:47.524Z,4.63
2022-09-21T00:51:16.005Z,4.50
2022-09-21T00:53:44.675Z,4.67
2022-09-21T00:56:15.472Z,4.80
2022-09-21T00:58:47.561Z,2.97
2022-09-21T01:01:16.448Z,5.13
2022-09-21T01:03:45.688Z,7.87
2022-09-21T01:06:14.545Z,3.50
2022-09-21T01:08:43.723Z,4.33
2022-09-21T01:11:35.144Z,6.70
2022-09-21T01:14:20.800Z,3.73
2022-09-21T01:17:02.379Z,4.57
2022-09-21T01:20:04.053Z,4.57
2022-09-21T01:22:45.931Z,5.50
2022-09-21T01:25:24.560Z,4.07
2022-09-21T01:28:07.816Z,4.83
2022-09-21T01:30:44.611Z,4.27
2022-09-21T01:33:20.259Z,5.57
2022-09-21T01:35:51.149Z,7.53
2022-09-21T01:38:24.031Z,5.73
2022-09-21T01:40:54.718Z,5.53
2022-09-21T01:43:27.241Z,5.50
2022-09-21T01:46:02.019Z,4.70
2022-09-21T01:48:35.129Z,4.47
2022-09-21T01:51:08.286Z,4.83
2022-09-21T01:53:41.423Z,5.47
2022-09-21T01:56:14.509Z,4.20
2022-09-21T01:58:46.898Z,6.87
2022-09-21T02:01:20.657Z,3.67
2022-09-21T02:03:52.502Z,4.63
2022-09-21T02:06:20.692Z,7.20
2022-09-21T02:08:49.072Z,5.03
2022-09-21T02:11:16.961Z,5.57
2022-09-21T02:13:46.980Z,5.57
2022-09-21T02:16:34.971Z,4.43
2022-09-21T02:19:15.351Z,5.20
2022-09-21T02:21:57.236Z,5.03
2022-09-21T02:24:36.556Z,7.40
2022-09-21T02:27:07.608Z,4.80
2022-09-21T02:29:45.571Z,5.27
2022-09-21T02:32:24.710Z,4.57
2022-09-21T02:34:56.703Z,6.63
2022-09-21T02:37:34.566Z,4.97
2022-09-21T02:40:08.551Z,6.30
2022-09-21T02:42:41.724Z,4.57
2022-09-21T02:45:14.681Z,5.63
2022-09-21T02:47:50.122Z,6.23
2022-09-21T02:50:23.954Z,7.40
2022-09-21T02:52:55.303Z,4.80
2022-09-21T02:55:23.834Z,4.60
2022-09-21T02:57:51.833Z,5.63
2022-09-21T03:00:20.537Z,5.00
2022-09-21T03:02:49.805Z,5.30
2022-09-21T03:05:17.708Z,3.97
2022-09-21T03:07:45.646Z,8.60
2022-09-21T03:10:13.530Z,7.73
2022-09-21T03:12:46.820Z,4.67
2022-09-21T03:15:16.539Z,5.00
2022-09-21T03:17:44.431Z,5.17
2022-09-21T03:20:14.111Z,6.00
2022-09-21T03:22:41.984Z,5.73
2022-09-21T03:25:13.138Z,5.57
2022-09-21T03:27:42.715Z,3.80
2022-09-21T03:30:11.644Z,4.77
2022-09-21T03:32:39.527Z,3.43
2022-09-21T03:35:08.314Z,5.57
2022-09-21T03:37:41.138Z,9.00
2022-09-21T03:40:11.410Z,5.07
2022-09-21T03:42:39.818Z,7.00
2022-09-21T03:45:09.941Z,5.27
2022-09-21T03:47:39.269Z,7.07
2022-09-21T03:50:10.203Z,5.30
2022-09-21T03:52:39.919Z,5.60
2022-09-21T03:55:10.215Z,4.23
2022-09-21T03:57:38.430Z,8.03
2022-09-21T04:00:08.715Z,4.63
2022-09-21T04:02:36.967Z,4.30
2022-09-21T04:05:06.883Z,5.03
2022-09-21T04:07:35.771Z,4.83
2022-09-21T04:10:06.555Z,6.07
2022-09-21T04:12:35.079Z,6.43
2022-09-21T04:15:04.163Z,5.97
2022-09-21T04:17:32.235Z,4.97
2022-09-21T04:20:00.162Z,6.60
2022-09-21T04:22:28.192Z,4.90
2022-09-21T04:24:56.170Z,4.03
2022-09-21T04:27:25.422Z,5.17
2022-09-21T04:29:53.603Z,5.00
2022-09-21T04:32:21.698Z,4.13
2022-09-21T04:34:49.892Z,5.47
2022-09-21T04:37:18.052Z,6.17
2022-09-21T04:39:45.933Z,6.30
2022-09-21T04:42:14.135Z,5.10
2022-09-21T04:44:43.400Z,6.93
2022-09-21T04:47:11.852Z,6.23
2022-09-21T04:49:40.067Z,5.37
2022-09-21T04:52:08.097Z,7.67
2022-09-21T04:54:36.054Z,6.43
2022-09-21T04:57:04.059Z,7.63
2022-09-21T04:59:32.048Z,6.57
2022-09-21T05:02:01.293Z,5.67
2022-09-21T05:04:29.830Z,9.27
2022-09-21T05:06:59.300Z,6.10
2022-09-21T05:09:44.753Z,6.03
2022-09-21T05:12:12.799Z,6.60
2022-09-21T05:14:41.035Z,5.27
2022-09-21T05:17:10.892Z,6.37
2022-09-21T05:19:38.858Z,6.87
2022-09-21T05:22:06.846Z,6.17
2022-09-21T05:24:35.162Z,8.03
2022-09-21T05:27:03.266Z,10.77
2022-09-21T05:29:31.765Z,8.27
2022-09-21T05:32:06.257Z,8.40
2022-09-21T05:34:46.527Z,10.83
2022-09-21T05:37:37.802Z,11.20
2022-09-21T05:40:07.631Z,7.67
2022-09-21T05:42:36.100Z,11.47
2022-09-21T05:45:05.119Z,6.53
2022-09-21T05:47:40.570Z,7.90
2022-09-21T05:50:26.251Z,7.80
2022-09-21T05:53:05.845Z,8.93
2022-09-21T05:55:41.898Z,8.03
2022-09-21T05:58:18.278Z,10.10
2022-09-21T06:00:54.984Z,11.30
2022-09-21T06:03:29.567Z,9.20
2022-09-21T06:05:59.551Z,7.27
2022-09-21T06:08:27.738Z,10.03
2022-09-21T06:10:56.327Z,11.73
2022-09-21T06:13:24.188Z,9.10
2022-09-21T06:15:52.103Z,9.37
2022-09-21T06:18:20.368Z,9.47
2022-09-21T06:20:48.876Z,7.23
2022-09-21T06:23:18.083Z,8.40
2022-09-21T06:25:46.330Z,9.97
2022-09-21T06:28:14.507Z,10.93
2022-09-21T06:30:44.903Z,15.20
2022-09-21T06:33:12.926Z,12.93
2022-09-21T06:35:44.428Z,10.13
2022-09-21T06:38:12.303Z,9.33
2022-09-21T06:40:41.584Z,13.27
2022-09-21T06:43:09.492Z,11.17
2022-09-21T06:45:38.395Z,13.10
2022-09-21T06:48:06.446Z,13.70
2022-09-21T06:50:34.782Z,10.40
2022-09-21T06:53:03.453Z,13.03
2022-09-21T06:55:32.441Z,12.50
2022-09-21T06:58:05.267Z,11.27
2022-09-21T07:00:34.014Z,10.40
2022-09-21T07:03:01.971Z,10.90
2022-09-21T07:05:29.930Z,9.90
2022-09-21T07:07:59.220Z,12.93
2022-09-21T07:10:27.864Z,10.20
2022-09-21T07:12:56.351Z,11.63
2022-09-21T07:15:29.001Z,9.53
2022-09-21T07:18:05.610Z,10.87
2022-09-21T07:20:33.892Z,13.60
2022-09-21T07:23:01.842Z,10.03
2022-09-21T07:25:29.736Z,9.30
2022-09-21T07:28:01.076Z,9.50
2022-09-21T07:30:30.453Z,8.93
2022-09-21T07:32:58.587Z,8.87
2022-09-21T07:35:26.742Z,11.17
2022-09-21T07:37:56.402Z,11.43
2022-09-21T07:40:25.331Z,11.17
2022-09-21T07:42:53.504Z,12.43
2022-09-21T07:45:21.465Z,13.00
2022-09-21T07:47:50.758Z,10.00
2022-09-21T07:50:18.713Z,15.23
2022-09-21T07:52:46.729Z,12.60
2022-09-21T07:55:15.047Z,10.63
2022-09-21T07:58:00.518Z,13.07
2022-09-21T08:00:32.565Z,10.43
2022-09-21T08:03:01.902Z,8.97
2022-09-21T08:05:30.008Z,10.13
2022-09-21T08:07:58.284Z,7.57
2022-09-21T08:10:28.694Z,7.87
2022-09-21T08:12:57.450Z,8.70
2022-09-21T08:15:47.392Z,7.97
2022-09-21T08:18:14.707Z,9.37
2022-09-21T08:20:42.705Z,8.63
2022-09-21T08:23:12.394Z,9.40
2022-09-21T08:25:40.263Z,7.00
2022-09-21T08:28:10.002Z,7.30
2022-09-21T08:30:38.269Z,7.43
2022-09-21T08:33:06.993Z,7.13
2022-09-21T08:35:36.964Z,7.47
2022-09-21T08:38:04.938Z,5.70
2022-09-21T08:40:34.057Z,7.43
2022-09-21T08:43:05.453Z,7.60
2022-09-21T08:45:36.229Z,6.50
2022-09-21T08:48:08.230Z,7.10
2022-09-21T08:50:42.490Z,6.93
2022-09-21T08:53:16.922Z,6.13
2022-09-21T08:55:44.802Z,5.93
2022-09-21T08:58:23.950Z,8.03
2022-09-21T09:01:07.334Z,6.60
2022-09-21T09:04:24.068Z,6.43
2022-09-21T09:07:02.353Z,6.60
2022-09-21T09:09:55.893Z,4.47
2022-09-21T09:12:39.851Z,6.43
2022-09-21T09:15:28.097Z,4.43
2022-09-21T09:18:01.239Z,5.97
2022-09-21T09:20:32.342Z,7.77
2022-09-21T09:23:10.494Z,5.53
2022-09-21T09:25:40.484Z,8.10
2022-09-21T09:28:22.996Z,3.40
2022-09-21T09:30:57.973Z,4.73
2022-09-21T09:33:29.050Z,5.97
2022-09-21T09:36:02.693Z,3.97
2022-09-21T09:38:38.144Z,3.33
2022-09-21T09:41:42.688Z,4.73
2022-09-21T09:44:24.276Z,4.30
2022-09-21T09:47:01.771Z,2.97
2022-09-21T09:49:39.754Z,2.30
2022-09-21T09:52:12.021Z,2.40
2022-09-21T09:54:41.625Z,2.37
2022-09-21T09:57:11.948Z,2.17
2022-09-21T09:59:44.233Z,3.20
2022-09-21T10:02:21.464Z,3.13
2022-09-21T10:05:03.689Z,1.87
2022-09-21T10:07:36.825Z,2.13
2022-09-21T10:10:25.176Z,1.73
2022-09-21T10:12:54.233Z,1.53
2022-09-21T10:15:25.618Z,2.03
2022-09-21T10:18:05.202Z,1.33
2022-09-21T10:20:33.985Z,1.33
2022-09-21T10:23:03.314Z,2.33
2022-09-21T10:25:35.749Z,1.93
2022-09-21T10:28:06.634Z,2.17
2022-09-21T10:30:38.617Z,1.43
2022-09-21T10:33:20.787Z,2.63
2022-09-21T10:35:53.634Z,1.90
2022-09-21T10:38:27.272Z,2.43
2022-09-21T10:40:56.749Z,3.10
2022-09-21T10:43:27.308Z,2.73
2022-09-21T10:45:57.367Z,3.03
2022-09-21T10:48:27.957Z,2.83
2022-09-21T10:50:57.877Z,1.90
2022-09-21T10:53:29.282Z,5.87
2022-09-21T10:56:18.381Z,2.80
2022-09-21T10:59:11.584Z,3.47
2022-09-21T11:01:45.512Z,3.40
2022-09-21T11:04:17.425Z,2.27
2022-09-21T11:06:48.131Z,2.83
2022-09-21T11:09:21.790Z,3.37
2022-09-21T11:11:58.646Z,4.57
2022-09-21T11:14:38.476Z,2.50
2022-09-21T11:17:13.210Z,3.73
2022-09-21T11:19:49.368Z,2.17
2022-09-21T11:22:24.899Z,3.87
2022-09-21T11:25:00.984Z,2.73
2022-09-21T11:27:36.201Z,3.60
2022-09-21T11:30:11.180Z,3.57
2022-09-21T11:32:58.147Z,3.20
2022-09-21T11:35:36.828Z,1.80
2022-09-21T11:38:11.485Z,2.07
2022-09-21T11:40:53.153Z,1.90
2022-09-21T11:43:36.803Z,2.63
2022-09-21T11:46:16.300Z,1.87
2022-09-21T11:48:59.981Z,3.47
2022-09-21T11:51:42.968Z,2.30
2022-09-21T11:54:39.221Z,2.03
2022-09-21T11:57:18.799Z,3.50
2022-09-21T12:00:00.737Z,0.70
2022-09-21T12:03:08.833Z,2.03
2022-09-21T12:05:42.702Z,1.93
2022-09-21T12:08:49.438Z,2.17
2022-09-21T12:11:29.710Z,1.43
2022-09-21T12:14:07.821Z,2.17
2022-09-21T12:16:43.032Z,2.27
2022-09-21T12:19:19.381Z,3.00
2022-09-21T12:21:50.524Z,1.20
2022-09-21T12:24:22.894Z,1.30
2022-09-21T12:26:55.638Z,1.87
2022-09-21T12:29:28.034Z,1.73
2022-09-21T12:32:05.755Z,1.83
2022-09-21T12:34:41.971Z,1.80
2022-09-21T12:37:14.265Z,4.97
2022-09-21T12:39:49.938Z,1.97
2022-09-21T12:42:29.457Z,2.67
2022-09-21T12:45:03.700Z,1.50
2022-09-21T12:47:44.810Z,2.87
2022-09-21T12:50:21.116Z,1.20
2022-09-21T12:52:51.146Z,1.97
2022-09-21T12:55:32.453Z,1.33
2022-09-21T12:58:16.099Z,1.20
2022-09-21T13:00:50.979Z,1.63
2022-09-21T13:03:26.849Z,1.40
2022-09-21T13:06:12.479Z,1.40
2022-09-21T13:08:44.068Z,1.13
2022-09-21T13:11:12.777Z,0.93
2022-09-21T13:13:52.790Z,1.33
2022-09-21T13:16:27.499Z,1.13
2022-09-21T13:19:00.023Z,0.70
2022-09-21T13:21:30.873Z,1.60
2022-09-21T13:24:01.318Z,0.87
2022-09-21T13:26:34.603Z,3.43
2022-09-21T13:29:22.547Z,1.67
2022-09-21T13:31:57.670Z,1.10
2022-09-21T13:34:30.810Z,1.77
2022-09-21T13:37:35.631Z,1.70
2022-09-21T13:40:41.009Z,3.63
2022-09-21T13:43:47.173Z,1.57
2022-09-21T13:46:48.409Z,2.43
2022-09-21T13:49:21.725Z,1.60
2022-09-21T13:52:00.033Z,1.17
2022-09-21T13:54:31.870Z,1.43
2022-09-21T13:57:09.681Z,1.73
2022-09-21T13:59:41.069Z,1.37
2022-09-21T14:02:31.614Z,1.30
2022-09-21T14:05:05.976Z,1.33
2022-09-21T14:07:36.201Z,1.37
2022-09-21T14:10:06.915Z,1.20
2022-09-21T14:12:40.119Z,1.23
2022-09-21T14:15:37.075Z,2.10
2022-09-21T14:18:46.410Z,1.23
2022-09-21T14:21:19.292Z,1.07
2022-09-21T14:24:35.857Z,1.70
2022-09-21T14:27:14.320Z,1.00
2022-09-21T14:29:46.940Z,1.83
2022-09-21T14:32:23.387Z,1.77
2022-09-21T14:34:56.414Z,1.30
2022-09-21T14:37:43.879Z,2.90
2022-09-21T14:40:21.567Z,1.67
2022-09-21T14:42:50.294Z,1.27
2022-09-21T14:45:20.572Z,1.97
2022-09-21T14:48:02.619Z,1.93
2022-09-21T14:50:34.947Z,2.67
2022-09-21T14:53:35.435Z,1.57
2022-09-21T14:56:25.541Z,1.40
2022-09-21T14:59:16.371Z,1.67
2022-09-21T15:01:58.153Z,1.17
2022-09-21T15:04:45.932Z,1.70
2022-09-21T15:07:43.563Z,1.33
2022-09-21T15:10:39.740Z,3.57
2022-09-21T15:13:19.708Z,1.20
2022-09-21T15:16:01.067Z,1.47
2022-09-21T15:18:30.625Z,1.73
2022-09-21T15:21:01.653Z,1.60
2022-09-21T15:23:32.880Z,1.63
2022-09-21T15:26:03.870Z,1.30
2022-09-21T15:29:04.932Z,1.80
2022-09-21T15:31:33.488Z,1.33
2022-09-21T15:34:02.690Z,1.47
2022-09-21T15:36:31.345Z,1.27
2022-09-21T15:39:00.376Z,2.50
2022-09-21T15:41:44.868Z,1.80
2022-09-21T15:44:19.031Z,2.13
2022-09-21T15:46:50.416Z,4.77
2022-09-21T15:49:22.054Z,1.10
2022-09-21T15:51:54.041Z,2.53
2022-09-21T15:54:35.471Z,1.07
2022-09-21T15:57:08.553Z,3.13
2022-09-21T15:59:38.295Z,3.07
2022-09-21T16:02:17.283Z,4.37
2022-09-21T16:04:50.005Z,1.50
2022-09-21T16:07:31.238Z,1.57
2022-09-21T16:09:59.328Z,1.07
2022-09-21T16:12:44.121Z,2.13
2022-09-21T16:15:28.278Z,2.43
2022-09-21T16:18:01.360Z,1.20
2022-09-21T16:20:44.547Z,1.80
2022-09-21T16:23:18.111Z,2.37
2022-09-21T16:25:53.604Z,1.10
2022-09-21T16:28:36.441Z,1.40
2022-09-21T16:31:24.734Z,1.60
2022-09-21T16:34:07.364Z,2.27
2022-09-21T16:36:42.898Z,3.10
2022-09-21T16:39:15.487Z,1.43
2022-09-21T16:41:48.266Z,2.53
2022-09-21T16:44:20.779Z,3.20
2022-09-21T16:46:54.468Z,2.97
2022-09-21T16:49:26.819Z,3.97
2022-09-21T16:51:57.621Z,1.77
2022-09-21T16:54:27.091Z,2.90
2022-09-21T16:56:57.287Z,2.20
2022-09-21T16:59:26.202Z,4.33
2022-09-21T17:01:57.394Z,1.50
2022-09-21T17:04:26.747Z,2.03
2022-09-21T17:06:55.294Z,2.27
2022-09-21T17:09:29.464Z,2.80
2022-09-21T17:11:59.329Z,3.93
2022-09-21T17:14:27.348Z,1.20
2022-09-21T17:16:58.978Z,2.07
2022-09-21T17:19:27.025Z,1.67
2022-09-21T17:21:54.898Z,2.67
2022-09-21T17:24:45.810Z,1.50
2022-09-21T17:27:11.001Z,2.20
2022-09-21T17:29:40.981Z,3.30
2022-09-21T17:32:12.021Z,1.67
2022-09-21T17:34:41.243Z,3.63
2022-09-21T17:37:10.288Z,4.93
2022-09-21T17:39:38.165Z,2.47
2022-09-21T17:42:17.300Z,4.40
2022-09-21T17:44:55.169Z,2.47
2022-09-21T17:47:28.089Z,2.63
2022-09-21T17:50:06.685Z,2.37
2022-09-21T17:52:52.700Z,3.27
2022-09-21T17:55:21.111Z,3.23
2022-09-21T17:58:02.303Z,3.63
2022-09-21T18:00:38.838Z,1.87
2022-09-21T18:03:21.741Z,2.67
2022-09-21T18:05:52.943Z,2.27
2022-09-21T18:08:21.482Z,2.43
2022-09-21T18:10:58.305Z,2.50
2022-09-21T18:13:35.056Z,4.27
2022-09-21T18:16:19.767Z,2.50
2022-09-21T18:18:56.600Z,1.70
2022-09-21T18:21:25.759Z,3.07
2022-09-21T18:24:13.602Z,4.43
2022-09-21T18:26:42.512Z,15.17
2022-09-21T18:29:38.976Z,15.93
2022-09-21T18:32:39.588Z,5.00
2022-09-21T18:35:28.695Z,2.20
2022-09-21T18:38:16.305Z,4.93
2022-09-21T18:41:00.421Z,1.70
2022-09-21T18:43:41.251Z,2.20
2022-09-21T18:46:14.883Z,4.60
2022-09-21T18:48:57.452Z,1.97
2022-09-21T18:51:33.030Z,2.63
2022-09-21T18:54:01.547Z,5.80
2022-09-21T18:56:35.348Z,6.90
2022-09-21T18:59:06.333Z,6.80
2022-09-21T19:01:35.177Z,3.00
2022-09-21T19:04:04.150Z,1.83
2022-09-21T19:06:54.192Z,1.73
2022-09-21T19:09:38.901Z,3.13
2022-09-21T19:12:18.620Z,3.50
2022-09-21T19:14:58.980Z,2.17
2022-09-21T19:17:42.125Z,2.40
2022-09-21T19:20:27.845Z,2.10
2022-09-21T19:23:06.056Z,1.97
2022-09-21T19:25:42.219Z,3.10
2022-09-21T19:28:42.522Z,4.07
2022-09-21T19:31:14.296Z,2.33
2022-09-21T19:33:50.393Z,3.33
2022-09-21T19:36:19.750Z,4.53
2022-09-21T19:38:49.506Z,3.83
2022-09-21T19:41:35.895Z,2.40
2022-09-21T19:44:15.287Z,2.77
2022-09-21T19:46:54.692Z,2.63
2022-09-21T19:49:26.177Z,3.43
2022-09-21T19:51:56.299Z,1.83
2022-09-21T19:54:44.980Z,3.03
2022-09-21T19:57:32.907Z,3.07
2022-09-21T20:00:01.900Z,2.37
2022-09-21T20:02:37.164Z,4.80
2022-09-21T20:05:10.334Z,4.27
2022-09-21T20:07:45.158Z,2.53
2022-09-21T20:10:43.206Z,2.53
2022-09-21T20:13:28.068Z,1.83
2022-09-21T20:16:04.056Z,6.10
2022-09-21T20:18:40.297Z,1.60
2022-09-21T20:21:13.479Z,1.97
2022-09-21T20:23:43.698Z,2.57
2022-09-21T20:26:23.796Z,3.30
2022-09-21T20:28:52.931Z,2.27
2022-09-21T20:31:21.471Z,1.97
2022-09-21T20:33:50.411Z,2.87
2022-09-21T20:36:18.466Z,2.53
2022-09-21T20:38:46.522Z,4.93
2022-09-21T20:41:20.203Z,3.70
2022-09-21T20:43:48.258Z,2.53
2022-09-21T20:46:16.985Z,3.87
2022-09-21T20:48:45.894Z,4.17
2022-09-21T20:51:14.013Z,1.90
2022-09-21T20:53:42.468Z,3.50
2022-09-21T20:56:12.959Z,3.40
2022-09-21T20:58:42.149Z,2.50
2022-09-21T21:01:10.716Z,2.47
2022-09-21T21:03:38.656Z,4.13
2022-09-21T21:06:11.555Z,4.60
2022-09-21T21:08:39.503Z,2.87
2022-09-21T21:11:07.705Z,2.87
2022-09-21T21:13:35.798Z,3.80
2022-09-21T21:16:11.083Z,3.70
2022-09-21T21:18:41.033Z,2.07
2022-09-21T21:21:09.329Z,3.10
2022-09-21T21:23:57.576Z,1.90
2022-09-21T21:26:43.975Z,3.00
2022-09-21T21:29:13.560Z,4.50
2022-09-21T21:31:43.151Z,5.10
2022-09-21T21:34:11.437Z,2.70
2022-09-21T21:36:39.876Z,3.17
2022-09-21T21:39:08.290Z,4.20
2022-09-21T21:41:36.399Z,2.47
2022-09-21T21:44:04.448Z,3.87
2022-09-21T21:46:32.381Z,3.20
2022-09-21T21:49:01.689Z,2.03
2022-09-21T21:51:30.006Z,3.03
2022-09-21T21:53:57.865Z,3.07
2022-09-21T21:56:26.528Z,3.53
2022-09-21T21:58:55.999Z,2.83
2022-09-21T22:01:26.368Z,3.60
2022-09-21T22:03:55.944Z,2.93
2022-09-21T22:06:25.788Z,3.17
2022-09-21T22:08:55.364Z,4.77
2022-09-21T22:11:25.016Z,3.67
2022-09-21T22:13:54.912Z,3.90
2022-09-21T22:16:24.977Z,1.90
2022-09-21T22:18:53.894Z,4.33
2022-09-21T22:21:23.415Z,3.43
2022-09-21T22:23:55.093Z,5.27
2022-09-21T22:26:23.913Z,2.63
2022-09-21T22:28:54.382Z,2.53
2022-09-21T22:31:26.415Z,4.60
2022-09-21T22:33:55.745Z,2.57
2022-09-21T22:36:25.833Z,6.03
2022-09-21T22:38:56.292Z,2.73
2022-09-21T22:41:25.868Z,2.93
2022-09-21T22:43:55.509Z,5.20
2022-09-21T22:46:24.797Z,6.67
2022-09-21T22:48:53.062Z,4.47
2022-09-21T22:51:22.187Z,3.63
2022-09-21T22:53:51.549Z,5.00
2022-09-21T22:56:22.873Z,2.23
2022-09-21T22:58:53.136Z,4.23
2022-09-21T23:01:24.914Z,3.97
2022-09-21T23:03:54.988Z,4.37
2022-09-21T23:06:26.385Z,4.13
2022-09-21T23:08:57.154Z,3.60
2022-09-21T23:11:28.757Z,2.63
2022-09-21T23:13:57.613Z,5.97
2022-09-21T23:16:27.224Z,4.17
2022-09-21T23:18:59.217Z,3.37
2022-09-21T23:21:29.402Z,3.43
2022-09-21T23:23:59.758Z,2.43
2022-09-21T23:26:30.663Z,2.80
2022-09-21T23:29:00.454Z,5.70
2022-09-21T23:31:29.389Z,2.90
2022-09-21T23:33:58.882Z,3.90
2022-09-21T23:36:28.764Z,2.50
2022-09-21T23:38:56.808Z,4.03
2022-09-21T23:41:26.336Z,3.77
2022-09-21T23:43:56.258Z,3.17
2022-09-21T23:46:26.028Z,6.17
2022-09-21T23:48:54.315Z,5.77
2022-09-21T23:51:22.712Z,5.77
2022-09-21T23:53:51.091Z,5.07
2022-09-21T23:56:21.338Z,3.80
2022-09-21T23:58:50.258Z,2.93
